Portada
METAR-TAF:

METAR-TAF

Aeropuertos :

Aeropuerto Internacional de Chuuk

Weno, Micronesia

latitud: 07-28N, longitud: 151-51E, altitud: 3 m

Observación

El informe se hizo hace 11 horas y 0 minutos, a las 04:50 UTC
Viento 7 kt del norte-noreste
Temperatura 32°C
Humedad 75%
Presión 1009 hPa
Visibilidad: 24.1 km
Escasas nubes a una altura de 1400 ft
Cielo nuboso a una altura de 12000 ft
Cielo cubierto a una altura de 29000 ft

METAR: PTKK 210450Z 03007KT 15SM FEW014 BKN120 OVC290 32/27 A2980 RMK SLP093 T03190274

Hora: 01:50 (15:50 UTC)

Pronóstico

El informe se hizo hace 16 horas y 24 minutos, a las 23:26 UTC
Pronóstico válido del 21 a las 00 UTC al 21 a las 24 UTC
Viento 7 kt del este-noreste
Visibilidad: 10 km
Escasas nubes a una altura de 1400 ft
Nubes dispersas a una altura de 3000 ft
Cielo nuboso a una altura de 13000 ft
chaparrones en las proximidades

TAF: PTKK 202326Z 2100/2124 06007KT P6SM VCSH FEW014 SCT030 BKN130

Observaciones y pronósticos meteorológicos de más de 4000 aeropuertos (mensajes METAR y TAF).

Los puntos amarillos y rojos representan las estaciones disponibles.

Ponga el ratón en el punto deseado para ver el nombre de la estación.

Haga clic para ver las observaciones y los pronósticos meteorológicos.

Para cambiar el mapa : haga clic en los botones verdes con una cruz de color negro para hacer un zoom, en el botón verde con un guión para alejar o en las flechas verdes para mapas adyacentes.


METAR-TAF: